Time;durP1;ratioP1;P1;durP2;ratioP2;P2;SDS_P1;SDS_P2;PMS_P1;PMS_P2;Temp;Humidity;BMP_temperature;BMP_pressure;BME280_temperature;BME280_humidity;BME280_pressure;Samples;Min_cycle;Max_cycle;Signal;HPM_P1;HPM_P2
2022/03/19 00:02:13;;;;;;;28.10;6.40;;;8.50;99.90;;;;;;5022654;28;20037;-64
2022/03/19 00:04:39;;;;;;;22.90;6.30;;;8.50;99.90;;;;;;5011022;28;20033;-63
2022/03/19 00:07:04;;;;;;;19.67;6.30;;;8.40;99.90;;;;;;5019397;28;20022;-64
2022/03/19 00:09:30;;;;;;;17.85;5.97;;;8.40;99.90;;;;;;5031453;28;20112;-65
2022/03/19 00:11:56;;;;;;;23.40;6.95;;;8.40;99.90;;;;;;5030266;28;20354;-66
2022/03/19 00:14:22;;;;;;;25.77;6.65;;;8.40;99.90;;;;;;5028559;28;20033;-62
2022/03/19 00:16:48;;;;;;;20.80;6.47;;;8.40;99.90;;;;;;5011543;28;20037;-65
2022/03/19 00:19:13;;;;;;;25.98;5.82;;;8.30;99.90;;;;;;5011384;28;20030;-63
2022/03/19 00:21:39;;;;;;;24.60;6.90;;;8.30;99.90;;;;;;5006136;28;20034;-65
2022/03/19 00:24:06;;;;;;;21.55;5.97;;;8.30;99.90;;;;;;5008951;28;20052;-64
2022/03/19 00:26:33;;;;;;;23.05;6.07;;;8.30;99.90;;;;;;5011998;28;20025;-65
2022/03/19 00:28:59;;;;;;;21.92;6.35;;;8.20;99.90;;;;;;5011737;28;20029;-67
2022/03/19 00:31:24;;;;;;;19.00;6.03;;;8.20;99.90;;;;;;5010891;28;20091;-66
2022/03/19 00:33:50;;;;;;;22.02;5.97;;;8.20;99.90;;;;;;5010826;28;20034;-66
2022/03/19 00:36:15;;;;;;;20.00;5.78;;;8.20;99.90;;;;;;5012391;28;20029;-64
2022/03/19 00:38:41;;;;;;;20.77;5.35;;;8.10;99.90;;;;;;5011944;28;20026;-66
2022/03/19 00:41:08;;;;;;;25.35;5.72;;;8.10;99.90;;;;;;5010629;28;20097;-63
2022/03/19 00:43:34;;;;;;;20.13;5.13;;;8.10;99.90;;;;;;5011548;28;20116;-67
2022/03/19 00:45:59;;;;;;;19.95;5.07;;;8.10;99.90;;;;;;5010515;28;20108;-65
2022/03/19 00:48:25;;;;;;;22.95;5.25;;;8.10;99.90;;;;;;5010482;28;20058;-68
2022/03/19 00:50:50;;;;;;;16.75;5.22;;;8.00;99.90;;;;;;5012486;28;20371;-67
2022/03/19 00:53:16;;;;;;;16.52;6.07;;;8.10;99.90;;;;;;5011411;28;20080;-65
2022/03/19 00:55:42;;;;;;;26.50;6.63;;;8.00;99.90;;;;;;5012555;28;20044;-65
2022/03/19 00:58:08;;;;;;;18.00;6.10;;;8.00;99.90;;;;;;5015175;28;20048;-63
2022/03/19 01:00:34;;;;;;;20.48;6.40;;;8.00;99.90;;;;;;5013946;28;20022;-64
2022/03/19 01:02:59;;;;;;;26.75;7.13;;;8.00;99.90;;;;;;5014229;28;20109;-64
2022/03/19 01:05:25;;;;;;;23.98;7.63;;;8.00;99.90;;;;;;5014087;28;20038;-68
2022/03/19 01:07:54;;;;;;;23.95;5.90;;;8.00;99.90;;;;;;5013805;28;20026;-67
2022/03/19 01:10:24;;;;;;;28.70;6.32;;;8.00;99.90;;;;;;5013318;28;20057;-64
2022/03/19 01:12:51;;;;;;;21.60;5.50;;;8.00;99.90;;;;;;5013989;28;20041;-65
2022/03/19 01:15:17;;;;;;;19.30;6.07;;;8.00;99.90;;;;;;5013283;28;20040;-63
2022/03/19 01:17:44;;;;;;;22.35;5.38;;;7.90;99.90;;;;;;5013305;28;20104;-63
2022/03/19 01:20:11;;;;;;;19.20;5.88;;;7.90;99.90;;;;;;5012880;28;20021;-63
2022/03/19 01:22:37;;;;;;;28.60;12.40;;;7.90;99.90;;;;;;5014246;28;20040;-62
2022/03/19 01:25:05;;;;;;;27.15;10.70;;;7.90;99.90;;;;;;5012722;28;20103;-63
2022/03/19 01:27:35;;;;;;;26.20;12.52;;;7.90;99.90;;;;;;5013133;28;20022;-63
2022/03/19 01:30:01;;;;;;;29.80;12.10;;;7.90;99.90;;;;;;5011914;28;20145;-62
2022/03/19 01:32:27;;;;;;;30.88;11.73;;;7.80;99.90;;;;;;5013266;28;20731;-63
2022/03/19 01:34:55;;;;;;;27.92;13.23;;;7.90;99.90;;;;;;5012992;28;20543;-64
2022/03/19 01:37:22;;;;;;;21.17;8.10;;;7.80;99.90;;;;;;5012850;28;20026;-63
2022/03/19 01:39:47;;;;;;;23.63;7.85;;;7.80;99.90;;;;;;5013392;28;20038;-64
2022/03/19 01:42:26;;;;;;;27.27;9.32;;;7.80;99.90;;;;;;5013235;28;20076;-63
2022/03/19 01:44:53;;;;;;;18.35;5.55;;;7.80;99.90;;;;;;5011778;28;20088;-62
2022/03/19 01:47:19;;;;;;;23.00;6.05;;;7.80;99.90;;;;;;5014066;28;20215;-62
2022/03/19 01:49:45;;;;;;;16.23;4.93;;;7.80;99.90;;;;;;5014194;28;20450;-63
2022/03/19 01:52:10;;;;;;;18.35;4.78;;;7.80;99.90;;;;;;5012776;28;20109;-63
2022/03/19 01:54:39;;;;;;;17.95;4.30;;;7.80;99.90;;;;;;5015930;28;20037;-63
2022/03/19 01:57:05;;;;;;;17.17;4.70;;;7.80;99.90;;;;;;5012685;28;20076;-62
2022/03/19 01:59:36;;;;;;;17.67;4.10;;;7.70;99.90;;;;;;5013975;28;20508;-62
2022/03/19 02:02:03;;;;;;;17.10;3.60;;;7.70;99.90;;;;;;5014078;28;20466;-63
2022/03/19 02:04:29;;;;;;;16.20;4.00;;;7.70;99.90;;;;;;5013133;28;20034;-63
2022/03/19 02:06:55;;;;;;;16.77;4.10;;;7.70;99.90;;;;;;5013146;28;20061;-63
2022/03/19 02:09:22;;;;;;;17.25;3.90;;;7.70;99.90;;;;;;5014390;28;20075;-63
2022/03/19 02:11:48;;;;;;;17.38;4.28;;;7.70;99.90;;;;;;5013685;28;20042;-63
2022/03/19 02:14:15;;;;;;;16.05;3.60;;;7.70;99.90;;;;;;5013816;28;20026;-62
2022/03/19 02:16:42;;;;;;;15.30;3.92;;;7.70;99.90;;;;;;5013367;28;20022;-62
2022/03/19 02:19:07;;;;;;;20.42;3.83;;;7.70;99.90;;;;;;5012894;28;20026;-63
2022/03/19 02:21:47;;;;;;;16.50;4.13;;;7.70;99.90;;;;;;5014406;28;20509;-62
2022/03/19 02:26:59;;;;;;;14.93;3.88;;;7.70;99.90;;;;;;5013595;28;20029;-62
2022/03/19 02:29:24;;;;;;;13.88;3.03;;;7.70;99.90;;;;;;5013014;28;20026;-63
2022/03/19 02:31:56;;;;;;;11.82;2.72;;;7.70;99.90;;;;;;5013757;28;20407;-62
2022/03/19 02:34:22;;;;;;;10.68;4.93;;;7.60;99.90;;;;;;5013122;28;20556;-62
2022/03/19 02:36:48;;;;;;;15.52;3.30;;;7.60;99.90;;;;;;5013451;28;20084;-63
2022/03/19 02:39:17;;;;;;;10.73;3.00;;;7.60;99.90;;;;;;5032499;28;20018;-63
2022/03/19 02:41:47;;;;;;;14.05;3.25;;;7.60;99.90;;;;;;5030402;28;20105;-63
2022/03/19 02:44:16;;;;;;;19.25;3.78;;;7.50;99.90;;;;;;5029396;28;20065;-63
2022/03/19 02:46:44;;;;;;;20.52;3.80;;;7.50;99.90;;;;;;5006825;28;20064;-63
2022/03/19 02:49:10;;;;;;;16.90;3.28;;;7.50;99.90;;;;;;5012156;28;20466;-63
2022/03/19 02:51:37;;;;;;;16.95;3.35;;;7.50;99.90;;;;;;5013347;28;20052;-63
2022/03/19 02:54:04;;;;;;;19.42;4.05;;;7.40;99.90;;;;;;5012970;28;20033;-63
2022/03/19 02:56:36;;;;;;;16.58;3.85;;;7.40;99.90;;;;;;5013307;28;20064;-63
2022/03/19 02:59:09;;;;;;;;;;;7.40;99.90;;;;;;5013107;28;20034;-63
2022/03/19 03:01:37;;;;;;;14.23;4.07;;;7.40;99.90;;;;;;5012913;28;20297;-63
2022/03/19 03:04:03;;;;;;;12.43;3.55;;;7.30;99.90;;;;;;5012189;28;20033;-63
2022/03/19 03:06:33;;;;;;;14.20;3.28;;;7.30;99.90;;;;;;5013460;28;20112;-63
2022/03/19 03:08:58;;;;;;;16.00;3.75;;;7.30;99.90;;;;;;5013315;28;20034;-63
2022/03/19 03:11:24;;;;;;;17.27;3.83;;;7.30;99.90;;;;;;5012852;28;20046;-63
2022/03/19 03:13:50;;;;;;;18.35;4.05;;;7.30;99.90;;;;;;5012755;28;20079;-63
2022/03/19 03:16:16;;;;;;;18.13;3.70;;;7.30;99.90;;;;;;5012375;28;20165;-63
2022/03/19 03:18:41;;;;;;;15.05;3.65;;;7.30;99.90;;;;;;5012122;28;20030;-62
2022/03/19 03:21:07;;;;;;;12.80;3.70;;;7.30;99.90;;;;;;5012151;28;20037;-62
2022/03/19 03:23:33;;;;;;;14.13;3.70;;;7.20;99.90;;;;;;5012696;28;20022;-63
2022/03/19 03:25:59;;;;;;;13.70;4.10;;;7.20;99.90;;;;;;5011856;28;20073;-63
2022/03/19 03:28:24;;;;;;;22.25;4.13;;;7.20;99.90;;;;;;5011601;28;20454;-63
2022/03/19 03:30:51;;;;;;;18.10;4.05;;;7.20;99.90;;;;;;5012156;28;20398;-63
2022/03/19 03:33:16;;;;;;;14.18;3.90;;;7.20;99.90;;;;;;5012272;28;20387;-62
2022/03/19 03:35:42;;;;;;;16.83;3.90;;;7.10;99.90;;;;;;5012394;28;20032;-64
2022/03/19 03:38:08;;;;;;;18.35;4.78;;;7.20;99.90;;;;;;5012564;28;20485;-63
2022/03/19 03:40:33;;;;;;;17.35;4.70;;;7.10;99.90;;;;;;5011998;28;20030;-62
2022/03/19 03:42:59;;;;;;;16.65;4.57;;;7.10;99.90;;;;;;5012448;28;20326;-63
2022/03/19 03:45:29;;;;;;;19.85;5.50;;;7.10;99.90;;;;;;5023909;28;20034;-62
2022/03/19 03:47:54;;;;;;;14.75;4.00;;;7.00;99.90;;;;;;5012568;28;20049;-62
2022/03/19 03:50:20;;;;;;;19.65;4.30;;;7.00;99.90;;;;;;5011794;28;20092;-63
2022/03/19 03:52:46;;;;;;;16.10;5.25;;;7.00;99.90;;;;;;5012050;28;20104;-63
2022/03/19 03:55:12;;;;;;;17.60;4.55;;;7.00;99.90;;;;;;5012034;28;20026;-63
2022/03/19 03:57:38;;;;;;;12.75;4.05;;;7.00;99.90;;;;;;5004342;28;20046;-63
2022/03/19 04:00:05;;;;;;;17.23;4.65;;;6.90;99.90;;;;;;5013038;28;20128;-63
2022/03/19 04:02:31;;;;;;;21.38;4.72;;;6.90;99.90;;;;;;5012832;28;20030;-63
2022/03/19 04:04:57;;;;;;;12.75;4.00;;;6.90;99.90;;;;;;5011757;28;20392;-63
2022/03/19 04:07:23;;;;;;;16.67;3.90;;;6.90;99.90;;;;;;5012534;28;20049;-63
2022/03/19 04:09:49;;;;;;;21.08;4.60;;;6.90;99.90;;;;;;5012214;28;20596;-63
2022/03/19 04:12:15;;;;;;;13.80;4.30;;;6.80;99.90;;;;;;5011859;28;20112;-63
2022/03/19 04:14:40;;;;;;;16.63;4.18;;;6.80;99.90;;;;;;5011981;28;20533;-63
2022/03/19 04:17:06;;;;;;;24.88;4.40;;;6.80;99.90;;;;;;5012141;28;20034;-63
2022/03/19 04:19:32;;;;;;;22.33;4.47;;;6.80;99.90;;;;;;5011929;28;20053;-63
2022/03/19 04:21:57;;;;;;;15.77;4.20;;;6.80;99.90;;;;;;5011898;28;20026;-63
2022/03/19 04:24:23;;;;;;;16.13;4.63;;;6.70;99.90;;;;;;5012186;28;20053;-63
2022/03/19 04:26:49;;;;;;;11.65;4.45;;;6.80;99.90;;;;;;5011809;28;20022;-63
2022/03/19 04:29:14;;;;;;;18.35;4.13;;;6.80;99.90;;;;;;5012528;28;20077;-63
2022/03/19 04:31:40;;;;;;;19.30;4.88;;;6.80;99.90;;;;;;5015752;28;20077;-62
2022/03/19 04:34:05;;;;;;;11.95;4.47;;;6.70;99.90;;;;;;5015222;28;20049;-63
2022/03/19 04:36:31;;;;;;;19.48;4.80;;;6.70;99.90;;;;;;5015277;28;20034;-62
2022/03/19 04:39:02;;;;;;;12.02;4.55;;;6.70;99.90;;;;;;5014300;28;20018;-63
2022/03/19 04:41:29;;;;;;;18.35;4.85;;;6.70;99.90;;;;;;5013980;28;20133;-63
2022/03/19 04:43:55;;;;;;;19.38;4.13;;;6.70;99.90;;;;;;5016056;28;20120;-63
2022/03/19 04:46:21;;;;;;;13.48;4.68;;;6.60;99.90;;;;;;5015135;28;20022;-63
2022/03/19 04:48:46;;;;;;;18.33;4.97;;;6.60;99.90;;;;;;5015312;28;20034;-63
2022/03/19 04:51:16;;;;;;;18.00;5.55;;;6.60;99.90;;;;;;5015127;28;20049;-63
2022/03/19 04:53:42;;;;;;;17.05;4.85;;;6.60;99.90;;;;;;5015718;28;20041;-63
2022/03/19 04:56:08;;;;;;;15.40;4.40;;;6.60;99.90;;;;;;5014867;28;20064;-63
2022/03/19 04:58:34;;;;;;;19.55;5.28;;;6.60;99.90;;;;;;5015118;28;20129;-63
2022/03/19 05:01:00;;;;;;;19.25;4.75;;;6.60;99.90;;;;;;5015390;28;20034;-63
2022/03/19 05:03:25;;;;;;;15.40;4.63;;;6.60;99.90;;;;;;5014200;28;20041;-63
2022/03/19 05:05:51;;;;;;;13.02;4.40;;;6.60;99.90;;;;;;5014961;28;20109;-63
2022/03/19 05:08:17;;;;;;;15.68;4.85;;;6.50;99.90;;;;;;5013812;28;20036;-63
2022/03/19 05:13:30;;;;;;;22.48;7.03;;;6.50;99.90;;;;;;4995698;28;20395;-63
2022/03/19 05:15:55;;;;;;;20.25;6.07;;;6.50;99.90;;;;;;5008922;28;20453;-62
2022/03/19 05:18:21;;;;;;;21.00;6.00;;;6.50;99.90;;;;;;5015136;28;20415;-62
2022/03/19 05:20:47;;;;;;;22.40;6.10;;;6.50;99.90;;;;;;5014325;28;20452;-63
2022/03/19 05:23:12;;;;;;;23.40;6.47;;;6.40;99.90;;;;;;5015284;28;20039;-62
2022/03/19 05:25:39;;;;;;;20.52;6.45;;;6.40;99.90;;;;;;5014552;28;20121;-63
2022/03/19 05:28:05;;;;;;;22.60;6.35;;;6.40;99.90;;;;;;5014851;28;20068;-63
2022/03/19 05:30:31;;;;;;;24.13;7.53;;;6.40;99.90;;;;;;5014378;28;20052;-63
2022/03/19 05:32:57;;;;;;;19.65;7.10;;;6.40;99.90;;;;;;5015133;28;20033;-63
2022/03/19 05:35:24;;;;;;;24.15;7.22;;;6.40;99.90;;;;;;5014464;28;20038;-67
2022/03/19 05:37:49;;;;;;;24.95;8.07;;;6.40;99.90;;;;;;5014890;28;20056;-63
2022/03/19 05:40:15;;;;;;;19.13;7.43;;;6.40;99.90;;;;;;5025123;28;20033;-63
2022/03/19 05:42:41;;;;;;;26.52;7.95;;;6.40;99.90;;;;;;5032545;28;20029;-64
2022/03/19 05:45:09;;;;;;;21.17;7.57;;;6.40;99.90;;;;;;5021602;28;20099;-63
2022/03/19 05:47:38;;;;;;;22.98;7.15;;;6.40;99.90;;;;;;5013588;28;20033;-63
2022/03/19 05:50:05;;;;;;;29.23;8.60;;;6.40;99.90;;;;;;5013112;28;20045;-63
2022/03/19 05:52:31;;;;;;;22.92;7.80;;;6.40;99.90;;;;;;5008591;28;20079;-63
2022/03/19 05:54:56;;;;;;;20.08;7.30;;;6.40;99.90;;;;;;5013381;28;20396;-63
2022/03/19 05:57:22;;;;;;;21.83;8.32;;;6.40;99.90;;;;;;5012867;28;20037;-63
2022/03/19 05:59:47;;;;;;;22.95;7.95;;;6.40;99.90;;;;;;5012036;28;20105;-63
2022/03/19 06:02:13;;;;;;;21.38;7.68;;;6.40;99.90;;;;;;5012932;28;20034;-63
2022/03/19 06:04:39;;;;;;;22.88;8.48;;;6.40;99.90;;;;;;5014338;28;20037;-63
2022/03/19 06:07:05;;;;;;;23.33;8.57;;;6.40;99.90;;;;;;5013034;28;20030;-63
2022/03/19 06:09:31;;;;;;;25.30;9.05;;;6.40;99.90;;;;;;5014228;28;20041;-64
2022/03/19 06:11:57;;;;;;;23.25;9.75;;;6.40;99.90;;;;;;5013944;28;20041;-65
2022/03/19 06:14:22;;;;;;;22.42;8.00;;;6.50;99.90;;;;;;5012846;28;20501;-63
2022/03/19 06:16:49;;;;;;;24.88;8.82;;;6.50;99.90;;;;;;5013545;28;20030;-63
2022/03/19 06:19:15;;;;;;;25.55;9.15;;;6.50;99.90;;;;;;4999924;28;20036;-63
2022/03/19 06:21:42;;;;;;;21.60;8.32;;;6.50;99.90;;;;;;5014121;28;20018;-63
2022/03/19 06:24:09;;;;;;;29.13;8.63;;;6.50;99.90;;;;;;5012855;28;20128;-64
2022/03/19 06:26:35;;;;;;;20.17;8.07;;;6.50;99.90;;;;;;5013600;28;20030;-64
2022/03/19 06:29:01;;;;;;;21.08;7.93;;;6.60;99.90;;;;;;5013811;28;20026;-63
2022/03/19 06:31:27;;;;;;;26.83;8.82;;;6.60;99.90;;;;;;5013263;28;20050;-64
2022/03/19 06:33:53;;;;;;;21.52;8.10;;;6.60;99.90;;;;;;5009172;28;20109;-64
2022/03/19 06:39:05;;;;;;;23.10;7.97;;;6.70;99.90;;;;;;5015505;28;20037;-64
2022/03/19 06:41:32;;;;;;;23.13;8.88;;;6.80;99.90;;;;;;5012639;28;20072;-64
2022/03/19 06:43:57;;;;;;;24.13;9.48;;;6.80;99.90;;;;;;5014067;28;20088;-63
2022/03/19 06:46:23;;;;;;;29.45;8.60;;;6.80;99.90;;;;;;5013864;28;20038;-63
2022/03/19 06:48:50;;;;;;;24.90;8.85;;;6.90;99.90;;;;;;5011898;28;20323;-62
2022/03/19 06:51:17;;;;;;;29.45;8.43;;;7.00;99.90;;;;;;5013471;28;20079;-63
2022/03/19 06:53:42;;;;;;;18.38;7.75;;;7.00;99.90;;;;;;5028627;28;20029;-63
2022/03/19 06:56:08;;;;;;;21.90;7.55;;;7.10;99.90;;;;;;5015829;28;20056;-64
2022/03/19 06:58:34;;;;;;;20.67;7.32;;;7.20;99.90;;;;;;5025624;28;20049;-63
2022/03/19 07:01:03;;;;;;;22.70;7.30;;;7.30;99.90;;;;;;5013853;28;20038;-63
2022/03/19 07:03:30;;;;;;;20.40;6.38;;;7.30;99.90;;;;;;5007464;28;20116;-64
2022/03/19 07:05:55;;;;;;;18.90;6.38;;;7.40;99.90;;;;;;5012937;28;20121;-63
2022/03/19 07:08:21;;;;;;;20.55;6.53;;;7.50;99.90;;;;;;5013445;28;20053;-63
2022/03/19 07:10:46;;;;;;;18.77;5.90;;;7.60;99.90;;;;;;5013150;28;20057;-64
2022/03/19 07:13:12;;;;;;;16.83;5.60;;;7.70;99.90;;;;;;5013346;28;20041;-63
2022/03/19 07:15:37;;;;;;;15.45;5.60;;;7.70;99.90;;;;;;5013253;28;20033;-63
2022/03/19 07:18:03;;;;;;;18.50;5.28;;;7.80;99.90;;;;;;5011968;28;20103;-63
2022/03/19 07:20:30;;;;;;;14.43;5.05;;;7.90;99.90;;;;;;5011701;28;20026;-63
2022/03/19 07:23:04;;;;;;;21.73;5.53;;;8.00;99.90;;;;;;5012540;28;20033;-63
2022/03/19 07:25:38;;;;;;;14.80;4.72;;;8.10;99.90;;;;;;5012657;28;20142;-63
2022/03/19 07:28:09;;;;;;;16.80;5.50;;;8.10;99.90;;;;;;5010558;28;20018;-63
2022/03/19 07:30:36;;;;;;;26.45;7.75;;;8.20;99.90;;;;;;5008066;28;20105;-63
2022/03/19 07:33:02;;;;;;;19.33;5.85;;;8.30;99.90;;;;;;5011171;28;20553;-63
2022/03/19 07:35:28;;;;;;;22.05;6.32;;;8.30;99.90;;;;;;5011251;28;20482;-63
2022/03/19 07:37:54;;;;;;;19.40;6.05;;;8.50;99.90;;;;;;5012008;28;20029;-63
2022/03/19 07:43:09;;;;;;;17.88;5.65;;;8.70;99.90;;;;;;5012460;28;20032;-62
2022/03/19 07:45:37;;;;;;;12.52;4.57;;;8.80;99.90;;;;;;5012523;28;20489;-62
2022/03/19 07:48:03;;;;;;;17.23;6.20;;;8.90;99.90;;;;;;5012200;28;20026;-62
2022/03/19 07:50:29;;;;;;;12.73;4.38;;;9.10;99.90;;;;;;5012739;28;20041;-63
2022/03/19 07:52:55;;;;;;;16.65;5.28;;;9.30;99.90;;;;;;5011734;28;20053;-63
2022/03/19 07:55:20;;;;;;;13.85;4.43;;;9.40;99.90;;;;;;5011512;28;20030;-63
2022/03/19 07:57:46;;;;;;;13.27;4.35;;;9.70;99.90;;;;;;5011835;28;20029;-63
2022/03/19 08:00:16;;;;;;;13.65;4.22;;;10.00;99.90;;;;;;5012305;28;20061;-64
2022/03/19 08:02:42;;;;;;;14.80;4.28;;;10.30;99.90;;;;;;5013023;28;20030;-63
2022/03/19 08:05:09;;;;;;;13.32;4.13;;;10.80;99.90;;;;;;5013394;28;20041;-63
2022/03/19 08:07:34;;;;;;;19.50;6.50;;;11.40;99.90;;;;;;5016669;28;20037;-63
2022/03/19 08:10:00;;;;;;;14.07;4.47;;;11.90;99.90;;;;;;5016190;28;20033;-63
2022/03/19 08:12:27;;;;;;;13.48;5.00;;;12.50;99.90;;;;;;5016747;28;20026;-63
2022/03/19 08:14:52;;;;;;;15.38;4.95;;;13.00;99.90;;;;;;5013901;28;20022;-63
2022/03/19 08:17:18;;;;;;;12.15;3.95;;;13.70;99.20;;;;;;5013833;28;20034;-63
2022/03/19 08:19:45;;;;;;;14.23;4.38;;;14.30;98.20;;;;;;5010443;28;20120;-63
2022/03/19 08:22:10;;;;;;;16.25;4.95;;;14.80;96.90;;;;;;5014535;28;20026;-63
2022/03/19 08:24:36;;;;;;;9.10;4.07;;;15.30;96.40;;;;;;5016198;28;20053;-63
2022/03/19 08:27:02;;;;;;;13.35;4.18;;;15.90;95.10;;;;;;5016264;28;20041;-63
2022/03/19 08:29:28;;;;;;;15.50;4.25;;;16.50;93.90;;;;;;5014831;28;20048;-63
2022/03/19 08:31:55;;;;;;;13.20;4.03;;;16.90;93.00;;;;;;5015632;28;20073;-63
2022/03/19 08:34:21;;;;;;;11.27;3.80;;;17.30;91.70;;;;;;5016059;28;20026;-63
2022/03/19 08:36:48;;;;;;;14.40;4.20;;;17.50;90.90;;;;;;5016173;28;20065;-65
2022/03/19 08:41:58;;;;;;;13.23;3.45;;;18.20;89.80;;;;;;5015815;28;20441;-64
2022/03/19 08:44:24;;;;;;;9.75;3.83;;;18.40;87.30;;;;;;5015445;28;20037;-63
2022/03/19 08:46:50;;;;;;;11.07;3.05;;;18.40;87.00;;;;;;5023336;28;20030;-63
2022/03/19 08:49:16;;;;;;;13.07;3.60;;;18.50;86.30;;;;;;5016431;28;20092;-64
2022/03/19 08:51:42;;;;;;;11.68;3.45;;;18.40;85.90;;;;;;5015272;28;20116;-65
2022/03/19 08:54:14;;;;;;;14.77;4.15;;;18.50;87.30;;;;;;5013007;28;20120;-62
2022/03/19 08:56:41;;;;;;;12.15;4.60;;;18.90;86.40;;;;;;5003280;28;20041;-65
2022/03/19 08:59:07;;;;;;;11.85;3.63;;;19.40;85.70;;;;;;5006805;28;20114;-62
2022/03/19 09:01:33;;;;;;;10.48;3.85;;;19.90;82.90;;;;;;5005144;28;20065;-62
2022/03/19 09:03:59;;;;;;;11.50;3.80;;;20.10;82.70;;;;;;5011198;28;20029;-62
2022/03/19 09:06:25;;;;;;;12.88;3.70;;;20.40;80.70;;;;;;5014618;28;20065;-62
2022/03/19 09:08:51;;;;;;;13.63;4.20;;;20.40;79.90;;;;;;5005722;28;20053;-62
2022/03/19 09:11:21;;;;;;;11.50;3.80;;;20.40;79.10;;;;;;5005881;28;20104;-63
2022/03/19 09:13:48;;;;;;;11.48;4.28;;;20.60;79.50;;;;;;5008828;28;20023;-63
2022/03/19 09:16:15;;;;;;;13.25;4.00;;;20.70;77.90;;;;;;5016223;28;20034;-63
2022/03/19 09:18:41;;;;;;;11.43;3.47;;;20.80;78.20;;;;;;5007488;28;20065;-63
2022/03/19 09:21:07;;;;;;;13.32;4.03;;;20.90;76.60;;;;;;5013352;28;20155;-64
2022/03/19 09:23:32;;;;;;;10.23;3.20;;;20.90;76.80;;;;;;5017121;28;20048;-63
2022/03/19 09:25:58;;;;;;;13.25;3.60;;;20.80;76.00;;;;;;5033672;28;20046;-62
2022/03/19 09:28:24;;;;;;;10.50;3.58;;;20.70;76.00;;;;;;5011726;28;20062;-62
2022/03/19 09:30:51;;;;;;;10.27;3.40;;;20.70;75.80;;;;;;5016608;28;20053;-63
2022/03/19 09:33:16;;;;;;;13.98;3.67;;;21.00;75.10;;;;;;5017527;28;20026;-63
2022/03/19 09:35:42;;;;;;;12.90;3.50;;;21.00;75.60;;;;;;5018158;28;20438;-63
2022/03/19 09:38:08;;;;;;;10.07;3.08;;;21.20;74.70;;;;;;5017455;28;20028;-63
2022/03/19 09:40:33;;;;;;;11.85;3.75;;;21.60;73.80;;;;;;5001842;28;20122;-63
2022/03/19 09:42:59;;;;;;;13.40;3.90;;;21.90;72.80;;;;;;5000418;28;20069;-63
2022/03/19 09:45:29;;;;;;;11.98;4.18;;;22.00;72.70;;;;;;5014030;28;20044;-62
2022/03/19 09:47:55;;;;;;;12.77;3.35;;;22.30;72.40;;;;;;5007626;28;20026;-62
2022/03/19 09:50:22;;;;;;;11.90;3.65;;;22.40;70.80;;;;;;5011406;28;20128;-62
2022/03/19 09:52:53;;;;;;;9.93;3.20;;;22.30;70.30;;;;;;5018923;28;20034;-63
2022/03/19 09:55:27;;;;;;;12.65;3.10;;;22.10;68.10;;;;;;5010768;28;20033;-64
2022/03/19 09:57:53;;;;;;;10.73;2.70;;;22.00;66.60;;;;;;5012267;28;20066;-62
2022/03/19 10:00:22;;;;;;;8.30;2.03;;;21.70;65.70;;;;;;5004616;28;20042;-62
2022/03/19 10:03:02;;;;;;;7.28;2.08;;;21.50;64.80;;;;;;5013551;28;20425;-63
2022/03/19 10:08:36;;;;;;;5.78;2.67;;;21.50;63.90;;;;;;5009576;28;20057;-63
2022/03/19 10:11:08;;;;;;;9.50;2.53;;;21.70;64.90;;;;;;5009848;28;20037;-62
2022/03/19 10:13:37;;;;;;;9.43;2.53;;;21.70;63.50;;;;;;5013783;28;20037;-63
2022/03/19 10:16:03;;;;;;;8.25;2.50;;;21.60;63.20;;;;;;5013219;28;20058;-63
2022/03/19 10:18:30;;;;;;;5.65;2.05;;;21.60;63.30;;;;;;5015207;28;20438;-63
2022/03/19 10:21:23;;;;;;;10.30;2.53;;;21.70;62.20;;;;;;5014614;28;20125;-63
2022/03/19 10:23:48;;;;;;;8.13;2.65;;;21.60;62.20;;;;;;5033286;28;20029;-64
2022/03/19 10:26:35;;;;;;;11.90;2.65;;;21.50;61.40;;;;;;5013267;28;20022;-63
2022/03/19 10:29:03;;;;;;;8.02;2.60;;;21.50;61.30;;;;;;5005849;28;20105;-64
2022/03/19 10:31:37;;;;;;;5.55;2.30;;;21.60;61.00;;;;;;5028725;28;20059;-63
2022/03/19 10:34:07;;;;;;;9.70;2.88;;;21.80;61.20;;;;;;5013526;28;20057;-63
2022/03/19 10:36:40;;;;;;;8.20;2.30;;;21.90;61.70;;;;;;5013921;28;20108;-63
2022/03/19 10:39:20;;;;;;;7.95;2.20;;;22.10;60.30;;;;;;5008172;28;20065;-64
2022/03/19 10:41:47;;;;;;;9.05;2.42;;;22.40;58.40;;;;;;5013157;28;20030;-64
2022/03/19 10:44:16;;;;;;;6.65;2.28;;;22.50;58.70;;;;;;5009576;28;20025;-63
2022/03/19 10:46:53;;;;;;;6.75;2.60;;;22.50;57.70;;;;;;5020928;28;20056;-63
2022/03/19 10:49:24;;;;;;;6.68;2.00;;;22.40;56.10;;;;;;5013665;28;20048;-63
2022/03/19 10:51:52;;;;;;;8.10;2.20;;;22.30;55.70;;;;;;5019839;28;20536;-63
2022/03/19 10:54:18;;;;;;;9.55;2.63;;;22.30;55.40;;;;;;5009926;28;20356;-64
2022/03/19 10:56:46;;;;;;;5.22;1.92;;;22.30;55.20;;;;;;5005317;28;20401;-63
2022/03/19 10:59:12;;;;;;;5.32;1.92;;;22.20;54.80;;;;;;5014730;28;20026;-63
2022/03/19 11:01:38;;;;;;;10.30;3.33;;;22.10;55.60;;;;;;5005303;28;20492;-64
2022/03/19 11:04:06;;;;;;;9.35;2.53;;;22.20;55.30;;;;;;5016427;28;20029;-64
2022/03/19 11:06:40;;;;;;;8.13;2.65;;;22.40;53.50;;;;;;5016169;28;20120;-64
2022/03/19 11:09:10;;;;;;;6.45;2.40;;;22.30;52.90;;;;;;5005377;28;20086;-63
2022/03/19 11:11:42;;;;;;;8.48;2.20;;;22.20;52.60;;;;;;5013605;28;20120;-63
2022/03/19 11:14:10;;;;;;;13.35;2.30;;;22.00;53.90;;;;;;5012190;28;20040;-63
2022/03/19 11:16:37;;;;;;;5.93;2.22;;;22.00;53.10;;;;;;5013391;28;20037;-63
2022/03/19 11:19:04;;;;;;;6.65;2.00;;;22.20;52.20;;;;;;5004655;28;20104;-64
2022/03/19 11:21:32;;;;;;;4.50;2.30;;;22.20;52.60;;;;;;5026418;28;20364;-64
2022/03/19 11:24:11;;;;;;;7.90;2.45;;;22.00;53.20;;;;;;5005875;28;20054;-64
2022/03/19 11:26:37;;;;;;;7.40;2.05;;;21.90;53.90;;;;;;5009225;28;20041;-65
2022/03/19 11:29:05;;;;;;;7.75;2.08;;;22.00;53.70;;;;;;5005386;28;20068;-65
2022/03/19 11:31:32;;;;;;;11.85;2.70;;;21.90;53.80;;;;;;5011739;28;20397;-65
2022/03/19 11:34:12;;;;;;;8.05;1.98;;;22.00;54.70;;;;;;5012568;28;20061;-64
2022/03/19 11:36:58;;;;;;;7.60;2.17;;;22.20;53.70;;;;;;5011318;28;20034;-64
2022/03/19 11:39:24;;;;;;;7.72;2.42;;;22.40;54.60;;;;;;5011325;28;20029;-64
2022/03/19 11:41:51;;;;;;;7.32;2.42;;;22.30;54.80;;;;;;5006651;28;20171;-62
2022/03/19 11:44:17;;;;;;;7.55;2.53;;;22.20;54.90;;;;;;5004907;28;20034;-63
2022/03/19 11:47:09;;;;;;;9.55;2.40;;;22.10;54.10;;;;;;5004605;28;20160;-63
2022/03/19 11:49:44;;;;;;;8.17;2.33;;;22.00;54.30;;;;;;5005770;28;20112;-64
2022/03/19 11:52:09;;;;;;;5.70;1.55;;;22.00;53.30;;;;;;5004066;28;20045;-64
2022/03/19 11:55:00;;;;;;;10.73;2.60;;;21.90;52.80;;;;;;5006995;28;20033;-64
2022/03/19 11:57:26;;;;;;;8.30;1.95;;;21.80;53.40;;;;;;5006573;28;20034;-66
2022/03/19 11:59:59;;;;;;;7.03;2.15;;;21.60;53.70;;;;;;5003614;28;20463;-68
2022/03/19 12:02:26;;;;;;;11.55;2.20;;;21.60;54.50;;;;;;5011312;28;20037;-66
2022/03/19 12:04:55;;;;;;;6.07;1.98;;;21.40;54.60;;;;;;5012147;28;20026;-65
2022/03/19 12:07:47;;;;;;;10.25;2.90;;;21.10;54.90;;;;;;5010451;28;20034;-66
2022/03/19 12:10:24;;;;;;;8.95;2.50;;;21.00;55.40;;;;;;4993449;28;20038;-64
2022/03/19 12:12:50;;;;;;;9.95;2.45;;;21.00;54.70;;;;;;5005792;28;20116;-64
2022/03/19 12:15:42;;;;;;;6.75;2.25;;;21.10;55.20;;;;;;5011849;28;20034;-64
2022/03/19 12:18:32;;;;;;;7.13;2.33;;;21.40;55.40;;;;;;5005313;28;20065;-67
2022/03/19 12:21:03;;;;;;;7.90;2.30;;;21.60;55.00;;;;;;5011001;28;20034;-64
2022/03/19 12:24:09;;;;;;;6.97;2.13;;;21.60;54.70;;;;;;5012261;28;20030;-62
2022/03/19 12:26:55;;;;;;;6.90;2.33;;;21.60;54.90;;;;;;5016313;28;20104;-64
2022/03/19 12:29:20;;;;;;;6.65;2.45;;;21.40;55.00;;;;;;5018147;28;20105;-65
2022/03/19 12:31:48;;;;;;;10.57;2.70;;;21.30;54.90;;;;;;5016673;28;20129;-66
2022/03/19 12:34:23;;;;;;;5.93;2.13;;;21.10;54.70;;;;;;5012503;28;20029;-65
2022/03/19 12:37:01;;;;;;;9.75;2.17;;;21.10;54.60;;;;;;5009223;28;20026;-64
2022/03/19 12:39:27;;;;;;;7.70;2.20;;;21.10;54.40;;;;;;5012678;28;20038;-66
2022/03/19 12:41:53;;;;;;;8.18;2.10;;;20.90;54.20;;;;;;5009926;28;20030;-63
2022/03/19 12:44:24;;;;;;;8.30;2.17;;;20.90;54.50;;;;;;5020306;28;20104;-63
2022/03/19 12:46:58;;;;;;;9.38;2.25;;;20.90;54.60;;;;;;5015862;28;20466;-64
2022/03/19 12:49:25;;;;;;;10.25;2.50;;;20.90;55.30;;;;;;5016460;28;20036;-63
2022/03/19 12:51:51;;;;;;;7.57;2.72;;;20.90;54.70;;;;;;5014237;28;20053;-63
2022/03/19 12:54:31;;;;;;;7.80;2.47;;;20.90;55.70;;;;;;5012851;28;20032;-64
2022/03/19 12:57:10;;;;;;;9.98;2.72;;;20.70;54.80;;;;;;5017708;28;20030;-64
2022/03/19 12:59:36;;;;;;;10.98;3.03;;;20.40;55.10;;;;;;5022921;28;20147;-63
2022/03/19 13:02:03;;;;;;;10.15;2.13;;;20.00;55.20;;;;;;5015885;28;20034;-63
2022/03/19 13:04:30;;;;;;;8.85;2.47;;;19.70;56.10;;;;;;5013992;28;20034;-63
2022/03/19 13:06:58;;;;;;;8.98;2.60;;;19.50;56.60;;;;;;5015700;28;20058;-66